sensor_id;sensor_type;location;lat;lon;timestamp;pressure;altitude;pressure_sealevel;temperature;humidity
47082;BME280;33066;49.296;14.470;2022-08-19T00:02:16;96233.51;;;26.84;37.18
47082;BME280;33066;49.296;14.470;2022-08-19T00:04:41;96222.06;;;27.14;37.09
47082;BME280;33066;49.296;14.470;2022-08-19T00:07:06;96227.71;;;27.18;37.02
47082;BME280;33066;49.296;14.470;2022-08-19T00:09:34;96228.96;;;26.98;36.97
47082;BME280;33066;49.296;14.470;2022-08-19T00:11:59;96237.58;;;26.88;37.00
47082;BME280;33066;49.296;14.470;2022-08-19T00:14:23;96228.37;;;26.74;37.24
47082;BME280;33066;49.296;14.470;2022-08-19T00:16:48;96225.70;;;26.67;37.38
47082;BME280;33066;49.296;14.470;2022-08-19T00:19:14;96222.06;;;26.62;37.48
47082;BME280;33066;49.296;14.470;2022-08-19T00:21:39;96214.45;;;26.50;37.57
47082;BME280;33066;49.296;14.470;2022-08-19T00:24:05;96218.64;;;26.70;36.87
47082;BME280;33066;49.296;14.470;2022-08-19T00:26:29;96219.76;;;26.69;36.69
47082;BME280;33066;49.296;14.470;2022-08-19T00:28:55;96223.17;;;26.66;36.65
47082;BME280;33066;49.296;14.470;2022-08-19T00:31:20;96236.36;;;26.66;36.62
47082;BME280;33066;49.296;14.470;2022-08-19T00:33:45;96247.76;;;26.62;36.81
47082;BME280;33066;49.296;14.470;2022-08-19T00:36:10;96248.19;;;26.59;36.94
47082;BME280;33066;49.296;14.470;2022-08-19T00:38:35;96250.67;;;26.54;37.01
47082;BME280;33066;49.296;14.470;2022-08-19T00:41:00;96256.32;;;26.30;36.97
47082;BME280;33066;49.296;14.470;2022-08-19T00:43:26;96262.35;;;26.25;37.08
47082;BME280;33066;49.296;14.470;2022-08-19T00:45:51;96275.11;;;26.28;37.20
47082;BME280;33066;49.296;14.470;2022-08-19T00:48:14;96285.41;;;26.69;37.24
47082;BME280;33066;49.296;14.470;2022-08-19T00:50:40;96290.83;;;26.41;37.15
47082;BME280;33066;49.296;14.470;2022-08-19T00:53:04;96294.83;;;26.14;37.14
47082;BME280;33066;49.296;14.470;2022-08-19T00:55:31;96303.08;;;26.26;37.29
47082;BME280;33066;49.296;14.470;2022-08-19T00:57:59;96300.71;;;26.22;37.33
47082;BME280;33066;49.296;14.470;2022-08-19T01:00:21;96304.57;;;26.61;37.39
47082;BME280;33066;49.296;14.470;2022-08-19T01:02:47;96309.04;;;26.24;37.56
47082;BME280;33066;49.296;14.470;2022-08-19T01:05:14;96310.57;;;25.95;37.69
47082;BME280;33066;49.296;14.470;2022-08-19T01:07:38;96306.86;;;25.95;37.74
47082;BME280;33066;49.296;14.470;2022-08-19T01:10:02;96314.05;;;26.15;37.75
47082;BME280;33066;49.296;14.470;2022-08-19T01:12:26;96318.62;;;25.85;37.86
47082;BME280;33066;49.296;14.470;2022-08-19T01:14:51;96313.58;;;25.92;37.70
47082;BME280;33066;49.296;14.470;2022-08-19T01:17:18;96314.28;;;26.39;37.74
47082;BME280;33066;49.296;14.470;2022-08-19T01:19:43;96316.29;;;25.95;37.79
47082;BME280;33066;49.296;14.470;2022-08-19T01:22:12;96318.63;;;26.18;37.74
47082;BME280;33066;49.296;14.470;2022-08-19T01:24:31;96314.15;;;25.98;37.63
47082;BME280;33066;49.296;14.470;2022-08-19T01:26:56;96313.43;;;26.46;37.64
47082;BME280;33066;49.296;14.470;2022-08-19T01:29:23;96312.83;;;25.95;37.66
47082;BME280;33066;49.296;14.470;2022-08-19T01:31:47;96322.60;;;25.92;37.73
47082;BME280;33066;49.296;14.470;2022-08-19T01:34:12;96326.95;;;26.16;37.68
47082;BME280;33066;49.296;14.470;2022-08-19T01:36:43;96325.60;;;25.90;37.67
47082;BME280;33066;49.296;14.470;2022-08-19T01:39:06;96319.20;;;25.89;37.64
47082;BME280;33066;49.296;14.470;2022-08-19T01:41:27;96318.49;;;26.11;37.61
47082;BME280;33066;49.296;14.470;2022-08-19T01:43:53;96323.09;;;25.83;37.67
47082;BME280;33066;49.296;14.470;2022-08-19T01:46:17;96325.70;;;26.31;37.66
47082;BME280;33066;49.296;14.470;2022-08-19T01:48:45;96327.94;;;26.08;37.66
47082;BME280;33066;49.296;14.470;2022-08-19T01:51:08;96335.16;;;26.04;37.64
47082;BME280;33066;49.296;14.470;2022-08-19T01:53:34;96337.17;;;26.04;37.75
47082;BME280;33066;49.296;14.470;2022-08-19T01:55:57;96342.34;;;26.02;37.80
47082;BME280;33066;49.296;14.470;2022-08-19T01:58:25;96342.78;;;26.18;37.79
47082;BME280;33066;49.296;14.470;2022-08-19T02:00:48;96343.11;;;25.87;37.90
47082;BME280;33066;49.296;14.470;2022-08-19T02:03:13;96340.85;;;25.90;38.07
47082;BME280;33066;49.296;14.470;2022-08-19T02:05:38;96343.47;;;26.13;38.27
47082;BME280;33066;49.296;14.470;2022-08-19T02:08:03;96347.00;;;25.91;38.35
47082;BME280;33066;49.296;14.470;2022-08-19T02:10:29;96349.77;;;25.91;38.37
47082;BME280;33066;49.296;14.470;2022-08-19T02:12:53;96350.75;;;25.63;38.44
47082;BME280;33066;49.296;14.470;2022-08-19T02:15:20;96348.51;;;25.87;38.44
47082;BME280;33066;49.296;14.470;2022-08-19T02:17:43;96355.35;;;25.87;38.51
47082;BME280;33066;49.296;14.470;2022-08-19T02:20:10;96359.95;;;25.89;38.57
47082;BME280;33066;49.296;14.470;2022-08-19T02:22:34;96351.93;;;25.83;38.44
47082;BME280;33066;49.296;14.470;2022-08-19T02:25:01;96344.00;;;25.56;38.42
47082;BME280;33066;49.296;14.470;2022-08-19T02:27:26;96341.44;;;26.11;38.54
47082;BME280;33066;49.296;14.470;2022-08-19T02:29:50;96337.21;;;26.14;38.62
47082;BME280;33066;49.296;14.470;2022-08-19T02:32:17;96335.83;;;26.19;38.54
47082;BME280;33066;49.296;14.470;2022-08-19T02:34:42;96341.10;;;25.96;38.51
47082;BME280;33066;49.296;14.470;2022-08-19T02:37:05;96340.10;;;26.14;38.58
47082;BME280;33066;49.296;14.470;2022-08-19T02:39:31;96346.32;;;25.99;38.51
47082;BME280;33066;49.296;14.470;2022-08-19T02:41:56;96348.94;;;25.41;38.51
47082;BME280;33066;49.296;14.470;2022-08-19T02:44:23;96341.99;;;25.52;38.57
47082;BME280;33066;49.296;14.470;2022-08-19T02:46:48;96330.69;;;25.66;38.64
47082;BME280;33066;49.296;14.470;2022-08-19T02:49:13;96322.88;;;25.37;38.68
47082;BME280;33066;49.296;14.470;2022-08-19T02:51:40;96316.34;;;25.39;38.65
47082;BME280;33066;49.296;14.470;2022-08-19T02:54:05;96319.92;;;25.66;38.58
47082;BME280;33066;49.296;14.470;2022-08-19T02:56:29;96328.33;;;25.67;38.62
47082;BME280;33066;49.296;14.470;2022-08-19T02:58:52;96329.97;;;25.46;38.58
47082;BME280;33066;49.296;14.470;2022-08-19T03:01:23;96329.41;;;25.42;38.57
47082;BME280;33066;49.296;14.470;2022-08-19T03:03:42;96332.73;;;25.41;38.60
47082;BME280;33066;49.296;14.470;2022-08-19T03:06:11;96339.07;;;25.62;38.65
47082;BME280;33066;49.296;14.470;2022-08-19T03:08:34;96332.91;;;25.57;38.59
47082;BME280;33066;49.296;14.470;2022-08-19T03:12:59;96318.94;;;25.33;38.36
47082;BME280;33066;49.296;14.470;2022-08-19T03:15:25;96309.59;;;25.47;38.48
47082;BME280;33066;49.296;14.470;2022-08-19T03:17:49;96309.63;;;25.49;38.81
47082;BME280;33066;49.296;14.470;2022-08-19T03:20:14;96306.52;;;25.36;38.99
47082;BME280;33066;49.296;14.470;2022-08-19T03:22:39;96301.17;;;25.35;39.00
47082;BME280;33066;49.296;14.470;2022-08-19T03:25:05;96308.45;;;25.33;39.00
47082;BME280;33066;49.296;14.470;2022-08-19T03:27:29;96318.05;;;25.29;38.96
47082;BME280;33066;49.296;14.470;2022-08-19T03:29:54;96316.96;;;25.67;39.08
47082;BME280;33066;49.296;14.470;2022-08-19T03:32:19;96322.13;;;25.09;39.22
47082;BME280;33066;49.296;14.470;2022-08-19T03:34:44;96314.37;;;25.25;39.29
47082;BME280;33066;49.296;14.470;2022-08-19T03:37:11;96302.44;;;25.00;39.27
47082;BME280;33066;49.296;14.470;2022-08-19T03:39:38;96301.50;;;25.06;39.20
47082;BME280;33066;49.296;14.470;2022-08-19T03:42:00;96302.58;;;25.04;39.15
47082;BME280;33066;49.296;14.470;2022-08-19T03:44:26;96301.20;;;25.00;39.20
47082;BME280;33066;49.296;14.470;2022-08-19T03:46:52;96310.95;;;25.00;39.18
47082;BME280;33066;49.296;14.470;2022-08-19T03:49:18;96323.89;;;24.93;39.23
47082;BME280;33066;49.296;14.470;2022-08-19T03:51:42;96323.49;;;24.91;39.20
47082;BME280;33066;49.296;14.470;2022-08-19T03:54:09;96328.51;;;24.84;39.33
47082;BME280;33066;49.296;14.470;2022-08-19T03:56:32;96340.64;;;25.05;39.38
47082;BME280;33066;49.296;14.470;2022-08-19T03:59:00;96351.59;;;24.83;39.32
47082;BME280;33066;49.296;14.470;2022-08-19T04:01:23;96349.00;;;24.87;39.32
47082;BME280;33066;49.296;14.470;2022-08-19T04:03:48;96351.12;;;24.88;39.29
47082;BME280;33066;49.296;14.470;2022-08-19T04:06:13;96359.74;;;24.81;39.39
47082;BME280;33066;49.296;14.470;2022-08-19T04:08:37;96361.16;;;24.82;39.49
47082;BME280;33066;49.296;14.470;2022-08-19T04:11:06;96362.55;;;24.81;39.53
47082;BME280;33066;49.296;14.470;2022-08-19T04:13:29;96360.46;;;25.15;39.39
47082;BME280;33066;49.296;14.470;2022-08-19T04:15:53;96358.01;;;24.96;39.17
47082;BME280;33066;49.296;14.470;2022-08-19T04:18:17;96350.80;;;24.91;39.08
47082;BME280;33066;49.296;14.470;2022-08-19T04:20:45;96349.21;;;24.82;39.18
47082;BME280;33066;49.296;14.470;2022-08-19T04:23:08;96346.07;;;25.02;39.28
47082;BME280;33066;49.296;14.470;2022-08-19T04:25:37;96346.32;;;24.75;39.34
47082;BME280;33066;49.296;14.470;2022-08-19T04:27:59;96348.03;;;24.88;39.16
47082;BME280;33066;49.296;14.470;2022-08-19T04:30:24;96359.10;;;25.29;38.95
47082;BME280;33066;49.296;14.470;2022-08-19T04:32:49;96367.45;;;25.09;38.88
47082;BME280;33066;49.296;14.470;2022-08-19T04:35:15;96372.40;;;25.12;38.94
47082;BME280;33066;49.296;14.470;2022-08-19T04:37:40;96369.78;;;25.06;39.13
47082;BME280;33066;49.296;14.470;2022-08-19T04:40:06;96360.01;;;25.04;39.21
47082;BME280;33066;49.296;14.470;2022-08-19T04:42:30;96372.21;;;25.11;39.21
47082;BME280;33066;49.296;14.470;2022-08-19T04:44:56;96372.37;;;25.16;39.20
47082;BME280;33066;49.296;14.470;2022-08-19T04:47:21;96382.97;;;25.16;39.12
47082;BME280;33066;49.296;14.470;2022-08-19T04:49:47;96387.84;;;25.17;39.08
47082;BME280;33066;49.296;14.470;2022-08-19T04:52:12;96399.54;;;25.24;39.29
47082;BME280;33066;49.296;14.470;2022-08-19T04:54:38;96415.40;;;25.24;39.39
47082;BME280;33066;49.296;14.470;2022-08-19T04:57:04;96422.58;;;25.33;39.24
47082;BME280;33066;49.296;14.470;2022-08-19T04:59:28;96424.51;;;25.41;39.28
47082;BME280;33066;49.296;14.470;2022-08-19T05:01:54;96427.42;;;25.48;39.27
47082;BME280;33066;49.296;14.470;2022-08-19T05:04:20;96424.83;;;25.47;39.37
47082;BME280;33066;49.296;14.470;2022-08-19T05:06:46;96424.13;;;25.53;39.43
47082;BME280;33066;49.296;14.470;2022-08-19T05:09:10;96430.36;;;25.60;39.50
47082;BME280;33066;49.296;14.470;2022-08-19T05:11:37;96436.98;;;25.72;39.55
47082;BME280;33066;49.296;14.470;2022-08-19T05:14:01;96443.26;;;25.78;39.56
47082;BME280;33066;49.296;14.470;2022-08-19T05:16:28;96444.65;;;25.82;39.58
47082;BME280;33066;49.296;14.470;2022-08-19T05:18:52;96453.48;;;25.81;39.67
47082;BME280;33066;49.296;14.470;2022-08-19T05:21:19;96460.95;;;25.79;39.87
47082;BME280;33066;49.296;14.470;2022-08-19T05:23:43;96462.00;;;25.58;39.98
47082;BME280;33066;49.296;14.470;2022-08-19T05:26:08;96463.05;;;25.86;40.06
47082;BME280;33066;49.296;14.470;2022-08-19T05:28:32;96467.97;;;25.88;39.53
47082;BME280;33066;49.296;14.470;2022-08-19T05:30:58;96464.78;;;26.40;39.52
47082;BME280;33066;49.296;14.470;2022-08-19T05:33:23;96463.12;;;26.41;39.57
47082;BME280;33066;49.296;14.470;2022-08-19T05:35:49;96484.98;;;26.17;39.71
47082;BME280;33066;49.296;14.470;2022-08-19T05:38:14;96500.51;;;25.91;39.78
47082;BME280;33066;49.296;14.470;2022-08-19T05:40:39;96504.26;;;26.17;39.90
47082;BME280;33066;49.296;14.470;2022-08-19T05:43:05;96507.21;;;26.25;39.91
47082;BME280;33066;49.296;14.470;2022-08-19T05:45:29;96517.04;;;26.11;39.96
47082;BME280;33066;49.296;14.470;2022-08-19T05:47:54;96524.88;;;26.14;39.99
47082;BME280;33066;49.296;14.470;2022-08-19T05:50:20;96529.06;;;26.46;39.83
47082;BME280;33066;49.296;14.470;2022-08-19T05:52:45;96525.29;;;26.24;39.83
47082;BME280;33066;49.296;14.470;2022-08-19T05:55:12;96521.87;;;26.33;39.63
47082;BME280;33066;49.296;14.470;2022-08-19T05:57:37;96527.79;;;26.38;39.64
47082;BME280;33066;49.296;14.470;2022-08-19T06:00:04;96530.67;;;26.46;39.66
47082;BME280;33066;49.296;14.470;2022-08-19T06:02:29;96530.82;;;26.30;39.55
47082;BME280;33066;49.296;14.470;2022-08-19T06:04:54;96539.02;;;26.58;39.56
47082;BME280;33066;49.296;14.470;2022-08-19T06:07:17;96548.73;;;26.66;39.56
47082;BME280;33066;49.296;14.470;2022-08-19T06:09:43;96548.36;;;26.73;39.61
47082;BME280;33066;49.296;14.470;2022-08-19T06:12:08;96550.58;;;26.80;39.74
47082;BME280;33066;49.296;14.470;2022-08-19T06:14:34;96548.98;;;26.91;39.70
47082;BME280;33066;49.296;14.470;2022-08-19T06:17:00;96544.91;;;27.05;39.67
47082;BME280;33066;49.296;14.470;2022-08-19T06:19:25;96535.81;;;27.01;39.74
47082;BME280;33066;49.296;14.470;2022-08-19T06:21:52;96527.33;;;27.13;39.85
47082;BME280;33066;49.296;14.470;2022-08-19T06:24:19;96521.83;;;27.36;39.65
47082;BME280;33066;49.296;14.470;2022-08-19T06:26:43;96518.93;;;27.13;39.49
47082;BME280;33066;49.296;14.470;2022-08-19T06:29:08;96517.07;;;27.00;39.20
47082;BME280;33066;49.296;14.470;2022-08-19T06:31:34;96506.11;;;27.11;39.22
47082;BME280;33066;49.296;14.470;2022-08-19T06:33:57;96496.97;;;27.22;39.17
47082;BME280;33066;49.296;14.470;2022-08-19T06:36:25;96491.09;;;27.23;39.16
47082;BME280;33066;49.296;14.470;2022-08-19T06:38:48;96486.40;;;27.29;39.07
47082;BME280;33066;49.296;14.470;2022-08-19T06:41:14;96477.18;;;28.04;39.02
47082;BME280;33066;49.296;14.470;2022-08-19T06:43:39;96469.67;;;27.84;38.99
47082;BME280;33066;49.296;14.470;2022-08-19T06:46:10;96483.14;;;27.37;38.91
47082;BME280;33066;49.296;14.470;2022-08-19T06:48:30;96490.57;;;27.38;38.82
47082;BME280;33066;49.296;14.470;2022-08-19T06:50:55;96494.70;;;27.36;38.89
47082;BME280;33066;49.296;14.470;2022-08-19T06:53:20;96498.45;;;27.34;38.88
47082;BME280;33066;49.296;14.470;2022-08-19T06:55:46;96496.20;;;27.61;38.85
47082;BME280;33066;49.296;14.470;2022-08-19T06:58:11;96485.30;;;27.46;38.72
47082;BME280;33066;49.296;14.470;2022-08-19T07:00:39;96474.04;;;27.53;38.70
47082;BME280;33066;49.296;14.470;2022-08-19T07:03:03;96463.63;;;27.54;38.55
47082;BME280;33066;49.296;14.470;2022-08-19T07:05:29;96448.89;;;27.65;38.40
47082;BME280;33066;49.296;14.470;2022-08-19T07:07:55;96432.63;;;27.74;38.31
47082;BME280;33066;49.296;14.470;2022-08-19T07:10:20;96406.20;;;27.84;38.13
47082;BME280;33066;49.296;14.470;2022-08-19T07:12:46;96389.87;;;27.68;37.98
47082;BME280;33066;49.296;14.470;2022-08-19T07:15:12;96398.69;;;27.72;38.02
47082;BME280;33066;49.296;14.470;2022-08-19T07:17:38;96412.44;;;27.69;38.18
47082;BME280;33066;49.296;14.470;2022-08-19T07:20:04;96410.15;;;27.78;38.10
47082;BME280;33066;49.296;14.470;2022-08-19T07:22:28;96414.74;;;27.82;37.96
47082;BME280;33066;49.296;14.470;2022-08-19T07:24:54;96420.72;;;27.59;37.97
47082;BME280;33066;49.296;14.470;2022-08-19T07:27:20;96430.60;;;27.52;37.94
47082;BME280;33066;49.296;14.470;2022-08-19T07:29:45;96449.40;;;27.70;38.01
47082;BME280;33066;49.296;14.470;2022-08-19T07:32:11;96456.16;;;27.79;37.94
47082;BME280;33066;49.296;14.470;2022-08-19T07:34:36;96454.75;;;27.87;37.95
47082;BME280;33066;49.296;14.470;2022-08-19T07:37:02;96444.99;;;27.86;37.95
47082;BME280;33066;49.296;14.470;2022-08-19T07:39:30;96442.24;;;27.69;37.75
47082;BME280;33066;49.296;14.470;2022-08-19T07:41:53;96454.25;;;27.73;37.77
47082;BME280;33066;49.296;14.470;2022-08-19T07:44:20;96468.16;;;27.81;37.63
47082;BME280;33066;49.296;14.470;2022-08-19T07:46:49;96478.58;;;27.89;37.60
47082;BME280;33066;49.296;14.470;2022-08-19T07:49:11;96485.21;;;28.19;37.48
47082;BME280;33066;49.296;14.470;2022-08-19T07:51:35;96491.69;;;28.00;37.33
47082;BME280;33066;49.296;14.470;2022-08-19T07:54:00;96502.69;;;28.32;37.27
47082;BME280;33066;49.296;14.470;2022-08-19T07:56:26;96511.61;;;28.15;37.26
47082;BME280;33066;49.296;14.470;2022-08-19T07:58:52;96521.65;;;28.18;37.34
47082;BME280;33066;49.296;14.470;2022-08-19T08:01:19;96519.10;;;28.40;37.22
47082;BME280;33066;49.296;14.470;2022-08-19T08:03:43;96519.76;;;28.47;36.99
47082;BME280;33066;49.296;14.470;2022-08-19T08:06:08;96520.30;;;28.49;36.96
47082;BME280;33066;49.296;14.470;2022-08-19T08:08:33;96521.63;;;28.49;37.13
47082;BME280;33066;49.296;14.470;2022-08-19T08:10:59;96528.51;;;28.38;36.97
47082;BME280;33066;49.296;14.470;2022-08-19T08:13:24;96526.67;;;28.44;36.68
47082;BME280;33066;49.296;14.470;2022-08-19T08:15:49;96528.69;;;28.28;36.84
47082;BME280;33066;49.296;14.470;2022-08-19T08:18:16;96527.59;;;28.70;36.63
47082;BME280;33066;49.296;14.470;2022-08-19T08:20:41;96528.20;;;28.62;36.58
47082;BME280;33066;49.296;14.470;2022-08-19T08:23:06;96524.66;;;28.74;36.29
47082;BME280;33066;49.296;14.470;2022-08-19T08:25:31;96520.92;;;28.83;36.23
47082;BME280;33066;49.296;14.470;2022-08-19T08:27:57;96520.16;;;29.13;36.22
47082;BME280;33066;49.296;14.470;2022-08-19T08:30:24;96514.63;;;29.24;36.00
47082;BME280;33066;49.296;14.470;2022-08-19T08:32:48;96500.22;;;28.95;36.07
47082;BME280;33066;49.296;14.470;2022-08-19T08:35:15;96494.14;;;28.96;36.14
47082;BME280;33066;49.296;14.470;2022-08-19T08:37:39;96489.76;;;29.11;36.17
47082;BME280;33066;49.296;14.470;2022-08-19T08:40:05;96483.64;;;29.27;36.01
47082;BME280;33066;49.296;14.470;2022-08-19T08:42:31;96483.08;;;29.28;35.98
47082;BME280;33066;49.296;14.470;2022-08-19T08:44:59;96485.53;;;29.42;36.02
47082;BME280;33066;49.296;14.470;2022-08-19T08:47:22;96482.92;;;29.32;35.98
47082;BME280;33066;49.296;14.470;2022-08-19T08:49:49;96480.69;;;29.43;35.90
47082;BME280;33066;49.296;14.470;2022-08-19T08:52:16;96479.58;;;29.59;35.67
47082;BME280;33066;49.296;14.470;2022-08-19T08:54:41;96475.39;;;29.47;35.42
47082;BME280;33066;49.296;14.470;2022-08-19T08:57:06;96472.40;;;30.05;35.27
47082;BME280;33066;49.296;14.470;2022-08-19T08:59:31;96478.29;;;29.62;35.33
47082;BME280;33066;49.296;14.470;2022-08-19T09:01:55;96483.52;;;29.73;35.15
47082;BME280;33066;49.296;14.470;2022-08-19T09:04:19;96490.17;;;29.50;34.53
47082;BME280;33066;49.296;14.470;2022-08-19T09:06:51;96491.90;;;29.74;34.48
47082;BME280;33066;49.296;14.470;2022-08-19T09:09:17;96492.44;;;29.80;33.97
47082;BME280;33066;49.296;14.470;2022-08-19T09:11:50;96494.16;;;29.85;33.98
47082;BME280;33066;49.296;14.470;2022-08-19T09:14:09;96493.27;;;29.98;33.94
47082;BME280;33066;49.296;14.470;2022-08-19T09:16:27;96487.24;;;29.79;33.85
47082;BME280;33066;49.296;14.470;2022-08-19T09:19:01;96483.18;;;29.98;33.89
47082;BME280;33066;49.296;14.470;2022-08-19T09:21:17;96486.90;;;30.00;33.99
47082;BME280;33066;49.296;14.470;2022-08-19T09:23:42;96487.32;;;30.09;34.06
47082;BME280;33066;49.296;14.470;2022-08-19T09:26:08;96485.93;;;30.17;33.93
47082;BME280;33066;49.296;14.470;2022-08-19T09:28:33;96486.24;;;30.03;33.81
47082;BME280;33066;49.296;14.470;2022-08-19T09:30:59;96483.27;;;30.41;33.75
47082;BME280;33066;49.296;14.470;2022-08-19T09:33:26;96488.87;;;30.28;33.66
47082;BME280;33066;49.296;14.470;2022-08-19T09:36:01;96488.34;;;30.37;33.41
47082;BME280;33066;49.296;14.470;2022-08-19T09:38:15;96486.77;;;30.72;33.46
47082;BME280;33066;49.296;14.470;2022-08-19T09:40:41;96486.33;;;30.34;33.61
47082;BME280;33066;49.296;14.470;2022-08-19T09:43:08;96484.28;;;30.82;33.72
47082;BME280;33066;49.296;14.470;2022-08-19T09:45:34;96488.68;;;30.74;33.50
47082;BME280;33066;49.296;14.470;2022-08-19T09:47:57;96489.65;;;30.75;33.66
47082;BME280;33066;49.296;14.470;2022-08-19T09:50:23;96486.97;;;30.60;33.83
47082;BME280;33066;49.296;14.470;2022-08-19T09:52:48;96485.52;;;30.74;33.28
47082;BME280;33066;49.296;14.470;2022-08-19T09:55:13;96482.05;;;30.86;33.16
47082;BME280;33066;49.296;14.470;2022-08-19T09:57:39;96483.51;;;31.03;33.10
47082;BME280;33066;49.296;14.470;2022-08-19T10:00:08;96483.65;;;30.97;32.62
47082;BME280;33066;49.296;14.470;2022-08-19T10:02:32;96477.11;;;31.25;32.17
47082;BME280;33066;49.296;14.470;2022-08-19T10:04:56;96483.20;;;31.50;32.33
47082;BME280;33066;49.296;14.470;2022-08-19T10:07:21;96487.80;;;31.50;32.06
47082;BME280;33066;49.296;14.470;2022-08-19T10:09:46;96486.26;;;31.47;31.64
47082;BME280;33066;49.296;14.470;2022-08-19T10:12:12;96489.09;;;31.34;31.76
47082;BME280;33066;49.296;14.470;2022-08-19T10:14:38;96494.00;;;31.33;31.93
47082;BME280;33066;49.296;14.470;2022-08-19T10:17:05;96498.70;;;31.04;32.24
47082;BME280;33066;49.296;14.470;2022-08-19T10:19:30;96497.34;;;31.25;32.03
47082;BME280;33066;49.296;14.470;2022-08-19T10:21:53;96497.03;;;31.52;32.29
47082;BME280;33066;49.296;14.470;2022-08-19T10:24:18;96495.49;;;31.61;32.46
47082;BME280;33066;49.296;14.470;2022-08-19T10:26:44;96497.25;;;31.45;32.53
47082;BME280;33066;49.296;14.470;2022-08-19T10:29:09;96496.73;;;31.49;32.03
47082;BME280;33066;49.296;14.470;2022-08-19T10:31:35;96497.91;;;31.56;32.38
47082;BME280;33066;49.296;14.470;2022-08-19T10:34:02;96499.94;;;31.70;32.65
47082;BME280;33066;49.296;14.470;2022-08-19T10:36:28;96501.91;;;31.49;31.71
47082;BME280;33066;49.296;14.470;2022-08-19T10:38:55;96503.55;;;31.63;31.65
47082;BME280;33066;49.296;14.470;2022-08-19T10:41:19;96498.65;;;31.81;31.60
47082;BME280;33066;49.296;14.470;2022-08-19T10:43:44;96495.42;;;31.79;31.46
47082;BME280;33066;49.296;14.470;2022-08-19T10:46:11;96487.68;;;32.16;31.31
47082;BME280;33066;49.296;14.470;2022-08-19T10:48:35;96485.92;;;32.41;30.76
47082;BME280;33066;49.296;14.470;2022-08-19T10:51:00;96485.83;;;32.38;30.54
47082;BME280;33066;49.296;14.470;2022-08-19T10:53:25;96482.42;;;32.37;30.42
47082;BME280;33066;49.296;14.470;2022-08-19T10:55:51;96475.67;;;32.57;30.24
47082;BME280;33066;49.296;14.470;2022-08-19T10:58:19;96471.32;;;33.02;30.04
47082;BME280;33066;49.296;14.470;2022-08-19T11:00:43;96467.24;;;32.93;29.57
47082;BME280;33066;49.296;14.470;2022-08-19T11:03:07;96466.03;;;32.90;30.05
47082;BME280;33066;49.296;14.470;2022-08-19T11:05:33;96461.25;;;32.26;29.90
47082;BME280;33066;49.296;14.470;2022-08-19T11:07:59;96455.97;;;32.62;30.06
47082;BME280;33066;49.296;14.470;2022-08-19T11:10:25;96456.81;;;32.15;30.05
47082;BME280;33066;49.296;14.470;2022-08-19T11:12:49;96457.13;;;31.79;30.53
47082;BME280;33066;49.296;14.470;2022-08-19T11:15:15;96457.20;;;32.31;30.15
47082;BME280;33066;49.296;14.470;2022-08-19T11:17:40;96456.67;;;32.52;29.92
47082;BME280;33066;49.296;14.470;2022-08-19T11:20:08;96458.23;;;32.36;29.81
47082;BME280;33066;49.296;14.470;2022-08-19T11:22:32;96456.10;;;32.66;30.02
47082;BME280;33066;49.296;14.470;2022-08-19T11:24:56;96449.24;;;32.82;29.66
47082;BME280;33066;49.296;14.470;2022-08-19T11:27:22;96442.32;;;32.69;29.46
47082;BME280;33066;49.296;14.470;2022-08-19T11:29:47;96442.83;;;32.47;29.68
47082;BME280;33066;49.296;14.470;2022-08-19T11:32:12;96441.72;;;32.41;30.19
47082;BME280;33066;49.296;14.470;2022-08-19T11:34:39;96443.92;;;32.34;30.25
47082;BME280;33066;49.296;14.470;2022-08-19T11:37:05;96441.79;;;32.56;30.02
47082;BME280;33066;49.296;14.470;2022-08-19T11:39:30;96435.72;;;32.91;29.96
47082;BME280;33066;49.296;14.470;2022-08-19T11:41:55;96430.35;;;33.30;29.18
47082;BME280;33066;49.296;14.470;2022-08-19T11:44:21;96430.39;;;33.34;28.71
47082;BME280;33066;49.296;14.470;2022-08-19T11:46:46;96427.68;;;33.79;28.23
47082;BME280;33066;49.296;14.470;2022-08-19T11:49:12;96428.99;;;33.88;28.44
47082;BME280;33066;49.296;14.470;2022-08-19T11:51:37;96429.38;;;33.88;28.86
47082;BME280;33066;49.296;14.470;2022-08-19T11:54:06;96421.02;;;33.87;28.22
47082;BME280;33066;49.296;14.470;2022-08-19T11:56:27;96418.61;;;34.01;27.94
47082;BME280;33066;49.296;14.470;2022-08-19T11:58:55;96417.25;;;34.08;27.42
47082;BME280;33066;49.296;14.470;2022-08-19T12:01:20;96410.87;;;34.34;26.97
47082;BME280;33066;49.296;14.470;2022-08-19T12:03:44;96397.90;;;34.33;26.66
47082;BME280;33066;49.296;14.470;2022-08-19T12:06:14;96397.09;;;34.42;26.75
47082;BME280;33066;49.296;14.470;2022-08-19T12:08:34;96390.98;;;34.20;27.39
47082;BME280;33066;49.296;14.470;2022-08-19T12:11:00;96384.94;;;33.95;27.11
47082;BME280;33066;49.296;14.470;2022-08-19T12:13:26;96389.81;;;34.35;27.16
47082;BME280;33066;49.296;14.470;2022-08-19T12:15:51;96394.00;;;34.46;26.54
47082;BME280;33066;49.296;14.470;2022-08-19T12:18:17;96403.93;;;34.38;26.79
47082;BME280;33066;49.296;14.470;2022-08-19T12:20:43;96410.12;;;34.74;25.77
47082;BME280;33066;49.296;14.470;2022-08-19T12:23:10;96416.05;;;35.18;25.39
47082;BME280;33066;49.296;14.470;2022-08-19T12:25:35;96409.08;;;35.67;25.27
47082;BME280;33066;49.296;14.470;2022-08-19T12:27:59;96402.80;;;35.98;24.52
47082;BME280;33066;49.296;14.470;2022-08-19T12:30:25;96399.58;;;36.86;24.51
47082;BME280;33066;49.296;14.470;2022-08-19T12:32:50;96395.74;;;36.91;24.29
47082;BME280;33066;49.296;14.470;2022-08-19T12:35:15;96395.37;;;37.08;24.03
47082;BME280;33066;49.296;14.470;2022-08-19T12:37:42;96396.40;;;37.55;24.37
47082;BME280;33066;49.296;14.470;2022-08-19T12:40:07;96397.03;;;37.82;22.79
47082;BME280;33066;49.296;14.470;2022-08-19T12:42:31;96395.17;;;38.51;23.45